sensor_id;sensor_type;location;lat;lon;timestamp;pressure;altitude;pressure_sealevel;temperature;humidity
10732;BME280;5417;42.686;23.244;2023-07-13T00:02:18;94529.03;;;25.12;52.55
10732;BME280;5417;42.686;23.244;2023-07-13T00:05:11;94530.06;;;25.11;52.81
10732;BME280;5417;42.686;23.244;2023-07-13T00:07:37;94526.78;;;25.09;53.04
10732;BME280;5417;42.686;23.244;2023-07-13T00:42:28;94509.03;;;24.70;54.93
10732;BME280;5417;42.686;23.244;2023-07-13T00:48:32;94512.53;;;24.64;55.17
10732;BME280;5417;42.686;23.244;2023-07-13T01:09:42;94500.50;;;24.28;56.28
10732;BME280;5417;42.686;23.244;2023-07-13T01:15:42;94513.59;;;24.30;56.77
10732;BME280;5417;42.686;23.244;2023-07-13T01:26:27;94507.44;;;24.16;58.07
10732;BME280;5417;42.686;23.244;2023-07-13T01:28:56;94489.03;;;24.21;58.12
10732;BME280;5417;42.686;23.244;2023-07-13T01:31:23;94496.81;;;24.16;58.36
10732;BME280;5417;42.686;23.244;2023-07-13T01:34:14;94500.69;;;24.13;58.48
10732;BME280;5417;42.686;23.244;2023-07-13T01:36:47;94501.72;;;24.12;58.33
10732;BME280;5417;42.686;23.244;2023-07-13T01:48:50;94481.25;;;24.00;59.24
10732;BME280;5417;42.686;23.244;2023-07-13T01:51:41;94494.16;;;23.96;59.49
10732;BME280;5417;42.686;23.244;2023-07-13T01:57:17;94484.53;;;23.95;59.97
10732;BME280;5417;42.686;23.244;2023-07-13T02:03:12;94496.56;;;23.84;59.51
10732;BME280;5417;42.686;23.244;2023-07-13T02:16:39;94517.81;;;23.65;59.09
10732;BME280;5417;42.686;23.244;2023-07-13T02:25:26;94512.31;;;23.66;60.02
10732;BME280;5417;42.686;23.244;2023-07-13T02:33:40;94516.38;;;23.62;60.71
10732;BME280;5417;42.686;23.244;2023-07-13T02:43:08;94509.84;;;23.58;61.06
10732;BME280;5417;42.686;23.244;2023-07-13T02:57:32;94520.44;;;23.51;62.34
10732;BME280;5417;42.686;23.244;2023-07-13T03:37:38;94544.34;;;23.45;64.70
10732;BME280;5417;42.686;23.244;2023-07-13T03:56:01;94537.47;;;23.77;64.66
10732;BME280;5417;42.686;23.244;2023-07-13T03:59:03;94531.56;;;23.88;65.26
10732;BME280;5417;42.686;23.244;2023-07-13T04:02:53;94531.97;;;23.91;65.20
10732;BME280;5417;42.686;23.244;2023-07-13T04:04:54;94533.44;;;23.94;65.19
10732;BME280;5417;42.686;23.244;2023-07-13T04:08:12;94529.75;;;24.02;65.12
10732;BME280;5417;42.686;23.244;2023-07-13T04:10:57;94534.66;;;24.11;65.49
10732;BME280;5417;42.686;23.244;2023-07-13T04:13:29;94525.25;;;24.15;64.92
10732;BME280;5417;42.686;23.244;2023-07-13T04:15:56;94526.47;;;24.19;64.11
10732;BME280;5417;42.686;23.244;2023-07-13T04:18:23;94524.22;;;24.23;62.82
10732;BME280;5417;42.686;23.244;2023-07-13T04:21:07;94530.56;;;24.35;62.29
10732;BME280;5417;42.686;23.244;2023-07-13T04:23:37;94529.75;;;24.54;61.67
10732;BME280;5417;42.686;23.244;2023-07-13T04:26:04;94543.22;;;24.73;61.36
10732;BME280;5417;42.686;23.244;2023-07-13T04:28:35;94533.22;;;24.68;61.23
10732;BME280;5417;42.686;23.244;2023-07-13T04:31:23;94532.34;;;24.88;60.97
10732;BME280;5417;42.686;23.244;2023-07-13T05:12:24;94562.16;;;28.38;49.89
10732;BME280;5417;42.686;23.244;2023-07-13T05:14:54;94567.63;;;28.43;49.42
10732;BME280;5417;42.686;23.244;2023-07-13T05:21:03;94567.31;;;28.75;49.04
10732;BME280;5417;42.686;23.244;2023-07-13T05:27:17;94570.03;;;28.98;49.57
10732;BME280;5417;42.686;23.244;2023-07-13T05:32:59;94575.16;;;29.00;48.59
10732;BME280;5417;42.686;23.244;2023-07-13T05:42:15;94576.22;;;29.62;47.16
10732;BME280;5417;42.686;23.244;2023-07-13T06:16:29;94564.34;;;31.93;40.73
10732;BME280;5417;42.686;23.244;2023-07-13T06:18:58;94572.94;;;32.17;41.00
10732;BME280;5417;42.686;23.244;2023-07-13T06:22:17;94571.16;;;32.00;39.75
10732;BME280;5417;42.686;23.244;2023-07-13T06:24:42;94574.56;;;31.91;40.66
10732;BME280;5417;42.686;23.244;2023-07-13T06:27:09;94585.31;;;32.18;40.88
10732;BME280;5417;42.686;23.244;2023-07-13T06:29:37;94590.53;;;32.24;39.97
10732;BME280;5417;42.686;23.244;2023-07-13T06:32:10;94581.75;;;32.34;40.15
10732;BME280;5417;42.686;23.244;2023-07-13T06:34:37;94578.56;;;32.37;38.47
10732;BME280;5417;42.686;23.244;2023-07-13T06:37:05;94575.69;;;32.49;38.20
10732;BME280;5417;42.686;23.244;2023-07-13T06:39:32;94577.09;;;32.56;38.92
10732;BME280;5417;42.686;23.244;2023-07-13T06:42:25;94562.41;;;32.74;38.09
10732;BME280;5417;42.686;23.244;2023-07-13T06:44:56;94563.44;;;32.68;37.66
10732;BME280;5417;42.686;23.244;2023-07-13T06:47:23;94568.22;;;32.88;37.82
10732;BME280;5417;42.686;23.244;2023-07-13T06:49:52;94561.63;;;33.11;38.04
10732;BME280;5417;42.686;23.244;2023-07-13T06:52:21;94569.06;;;33.31;37.36
10732;BME280;5417;42.686;23.244;2023-07-13T06:55:01;94562.13;;;33.45;37.88
10732;BME280;5417;42.686;23.244;2023-07-13T06:57:52;94559.47;;;33.60;37.96
10732;BME280;5417;42.686;23.244;2023-07-13T07:00:23;94564.13;;;33.75;37.77
10732;BME280;5417;42.686;23.244;2023-07-13T07:02:53;94564.41;;;33.78;38.00
10732;BME280;5417;42.686;23.244;2023-07-13T07:05:23;94561.16;;;33.81;37.95
10732;BME280;5417;42.686;23.244;2023-07-13T07:07:55;94563.50;;;33.10;37.65
10732;BME280;5417;42.686;23.244;2023-07-13T07:10:25;94558.69;;;33.17;38.55
10732;BME280;5417;42.686;23.244;2023-07-13T07:12:52;94561.94;;;33.19;39.27
10732;BME280;5417;42.686;23.244;2023-07-13T07:18:04;94569.13;;;32.72;41.06
10732;BME280;5417;42.686;23.244;2023-07-13T07:20:32;94566.31;;;32.83;40.66
10732;BME280;5417;42.686;23.244;2023-07-13T07:23:02;94562.88;;;32.93;40.69
10732;BME280;5417;42.686;23.244;2023-07-13T07:25:29;94556.78;;;33.13;39.54
10732;BME280;5417;42.686;23.244;2023-07-13T07:27:57;94551.00;;;33.31;39.65
10732;BME280;5417;42.686;23.244;2023-07-13T07:30:26;94554.34;;;33.53;39.65
10732;BME280;5417;42.686;23.244;2023-07-13T07:33:06;94554.38;;;33.69;38.42
10732;BME280;5417;42.686;23.244;2023-07-13T07:35:33;94541.72;;;33.79;38.88
10732;BME280;5417;42.686;23.244;2023-07-13T07:38:07;94538.88;;;34.11;39.57
10732;BME280;5417;42.686;23.244;2023-07-13T07:40:38;94548.59;;;34.12;40.17
10732;BME280;5417;42.686;23.244;2023-07-13T07:43:06;94531.03;;;34.10;40.49
10732;BME280;5417;42.686;23.244;2023-07-13T07:45:37;94534.28;;;34.17;38.86
10732;BME280;5417;42.686;23.244;2023-07-13T07:48:07;94528.41;;;34.35;38.23
10732;BME280;5417;42.686;23.244;2023-07-13T07:50:35;94542.75;;;34.46;38.46
10732;BME280;5417;42.686;23.244;2023-07-13T07:53:04;94532.44;;;34.63;37.55
10732;BME280;5417;42.686;23.244;2023-07-13T07:55:33;94527.03;;;34.63;36.91
10732;BME280;5417;42.686;23.244;2023-07-13T07:58:00;94525.97;;;34.64;36.93
10732;BME280;5417;42.686;23.244;2023-07-13T08:00:27;94520.84;;;34.58;37.41
10732;BME280;5417;42.686;23.244;2023-07-13T08:02:57;94501.38;;;34.40;36.81
10732;BME280;5417;42.686;23.244;2023-07-13T08:05:25;94511.09;;;34.52;36.50
10732;BME280;5417;42.686;23.244;2023-07-13T08:08:00;94500.03;;;34.38;36.95
10732;BME280;5417;42.686;23.244;2023-07-13T08:10:43;94509.22;;;34.57;35.75
10732;BME280;5417;42.686;23.244;2023-07-13T08:13:28;94501.09;;;34.57;36.83
10732;BME280;5417;42.686;23.244;2023-07-13T08:15:55;94501.09;;;34.67;36.83
10732;BME280;5417;42.686;23.244;2023-07-13T08:18:24;94491.34;;;34.92;36.91
10732;BME280;5417;42.686;23.244;2023-07-13T08:20:51;94498.41;;;34.88;35.66
10732;BME280;5417;42.686;23.244;2023-07-13T08:23:19;94495.91;;;34.81;35.33
10732;BME280;5417;42.686;23.244;2023-07-13T08:25:51;94493.50;;;35.00;35.32
10732;BME280;5417;42.686;23.244;2023-07-13T08:28:41;94494.00;;;35.12;34.69
10732;BME280;5417;42.686;23.244;2023-07-13T08:34:11;94491.31;;;35.07;35.39
10732;BME280;5417;42.686;23.244;2023-07-13T08:36:40;94472.88;;;35.14;34.49
10732;BME280;5417;42.686;23.244;2023-07-13T08:39:07;94470.41;;;35.23;35.46
10732;BME280;5417;42.686;23.244;2023-07-13T08:41:35;94475.88;;;35.07;36.88
10732;BME280;5417;42.686;23.244;2023-07-13T08:44:03;94480.78;;;35.00;36.99
10732;BME280;5417;42.686;23.244;2023-07-13T08:46:37;94484.28;;;35.06;40.09
10732;BME280;5417;42.686;23.244;2023-07-13T08:49:10;94489.72;;;34.96;41.40
10732;BME280;5417;42.686;23.244;2023-07-13T08:51:44;94491.09;;;34.63;38.04
10732;BME280;5417;42.686;23.244;2023-07-13T08:55:57;94478.13;;;34.44;37.90
10732;BME280;5417;42.686;23.244;2023-07-13T08:58:37;94490.25;;;34.06;38.86
10732;BME280;5417;42.686;23.244;2023-07-13T09:01:03;94497.25;;;34.02;41.78
10732;BME280;5417;42.686;23.244;2023-07-13T09:04:05;94507.78;;;33.89;40.31
10732;BME280;5417;42.686;23.244;2023-07-13T09:10:04;94499.38;;;33.22;43.47
10732;BME280;5417;42.686;23.244;2023-07-13T09:12:43;94503.53;;;33.35;41.76
10732;BME280;5417;42.686;23.244;2023-07-13T09:15:58;94506.25;;;33.40;41.30
10732;BME280;5417;42.686;23.244;2023-07-13T09:28:43;94518.75;;;33.67;36.89
10732;BME280;5417;42.686;23.244;2023-07-13T09:31:14;94505.22;;;33.62;32.60
10732;BME280;5417;42.686;23.244;2023-07-13T09:33:42;94524.97;;;33.72;33.29
10732;BME280;5417;42.686;23.244;2023-07-13T09:36:19;94511.97;;;33.64;32.14
10732;BME280;5417;42.686;23.244;2023-07-13T09:38:48;94507.66;;;33.68;33.07
10732;BME280;5417;42.686;23.244;2023-07-13T09:41:21;94504.19;;;33.78;32.42
10732;BME280;5417;42.686;23.244;2023-07-13T09:44:09;94506.41;;;33.86;33.45
10732;BME280;5417;42.686;23.244;2023-07-13T09:49:36;94500.22;;;34.06;33.41
10732;BME280;5417;42.686;23.244;2023-07-13T09:50:08;94504.56;;;34.22;32.03
10732;BME280;5417;42.686;23.244;2023-07-13T09:53:04;94495.16;;;34.40;31.86
10732;BME280;5417;42.686;23.244;2023-07-13T09:55:41;94485.16;;;34.40;31.88
10732;BME280;5417;42.686;23.244;2023-07-13T09:58:26;94480.00;;;34.54;30.81
10732;BME280;5417;42.686;23.244;2023-07-13T10:01:00;94479.47;;;34.62;31.62
10732;BME280;5417;42.686;23.244;2023-07-13T10:03:29;94479.72;;;34.71;31.83
10732;BME280;5417;42.686;23.244;2023-07-13T10:06:13;94465.69;;;34.48;30.76
10732;BME280;5417;42.686;23.244;2023-07-13T10:09:40;94469.72;;;34.10;30.64
10732;BME280;5417;42.686;23.244;2023-07-13T10:12:00;94468.09;;;34.04;31.06
10732;BME280;5417;42.686;23.244;2023-07-13T10:14:35;94461.31;;;33.86;31.36
10732;BME280;5417;42.686;23.244;2023-07-13T10:17:08;94469.97;;;34.04;32.29
10732;BME280;5417;42.686;23.244;2023-07-13T10:19:51;94470.50;;;34.21;31.51
10732;BME280;5417;42.686;23.244;2023-07-13T10:22:31;94459.50;;;34.38;32.13
10732;BME280;5417;42.686;23.244;2023-07-13T10:25:20;94470.84;;;34.35;32.31
10732;BME280;5417;42.686;23.244;2023-07-13T10:28:25;94463.53;;;34.45;30.12
10732;BME280;5417;42.686;23.244;2023-07-13T10:31:01;94461.34;;;34.53;30.46
10732;BME280;5417;42.686;23.244;2023-07-13T10:33:31;94456.25;;;34.41;29.17
10732;BME280;5417;42.686;23.244;2023-07-13T10:36:14;94452.72;;;34.45;29.74
10732;BME280;5417;42.686;23.244;2023-07-13T10:38:48;94443.78;;;34.60;31.03
10732;BME280;5417;42.686;23.244;2023-07-13T10:41:20;94446.75;;;34.64;28.77
10732;BME280;5417;42.686;23.244;2023-07-13T10:43:50;94447.03;;;34.57;29.53
10732;BME280;5417;42.686;23.244;2023-07-13T10:46:20;94428.66;;;34.39;29.55
10732;BME280;5417;42.686;23.244;2023-07-13T10:48:52;94442.69;;;34.31;29.58
10732;BME280;5417;42.686;23.244;2023-07-13T10:51:21;94432.72;;;34.36;29.31
10732;BME280;5417;42.686;23.244;2023-07-13T10:54:12;94426.75;;;34.55;31.46
10732;BME280;5417;42.686;23.244;2023-07-13T10:56:42;94411.09;;;34.46;30.19
10732;BME280;5417;42.686;23.244;2023-07-13T10:59:14;94418.38;;;34.46;28.99
10732;BME280;5417;42.686;23.244;2023-07-13T11:01:51;94422.97;;;34.45;29.83
10732;BME280;5417;42.686;23.244;2023-07-13T11:04:26;94406.75;;;34.51;31.26
10732;BME280;5417;42.686;23.244;2023-07-13T11:07:24;94419.66;;;34.74;32.93
10732;BME280;5417;42.686;23.244;2023-07-13T11:10:30;94406.16;;;34.89;32.10
10732;BME280;5417;42.686;23.244;2023-07-13T11:17:23;94399.66;;;34.90;30.08
10732;BME280;5417;42.686;23.244;2023-07-13T11:19:49;94392.84;;;34.98;31.39
10732;BME280;5417;42.686;23.244;2023-07-13T11:22:25;94402.00;;;35.12;31.03
10732;BME280;5417;42.686;23.244;2023-07-13T11:25:32;94393.28;;;35.20;31.43
10732;BME280;5417;42.686;23.244;2023-07-13T11:28:21;94395.69;;;35.27;31.08
10732;BME280;5417;42.686;23.244;2023-07-13T11:31:15;94388.13;;;35.24;31.66
10732;BME280;5417;42.686;23.244;2023-07-13T11:36:57;94385.94;;;35.26;31.22
10732;BME280;5417;42.686;23.244;2023-07-13T11:40:14;94395.97;;;35.25;31.44
10732;BME280;5417;42.686;23.244;2023-07-13T11:42:48;94391.09;;;35.27;32.26
10732;BME280;5417;42.686;23.244;2023-07-13T11:45:21;94384.69;;;35.08;31.44
10732;BME280;5417;42.686;23.244;2023-07-13T11:47:54;94381.75;;;34.99;29.75
10732;BME280;5417;42.686;23.244;2023-07-13T11:50:51;94381.81;;;34.89;30.84
10732;BME280;5417;42.686;23.244;2023-07-13T11:53:45;94380.41;;;34.97;32.00
10732;BME280;5417;42.686;23.244;2023-07-13T11:56:29;94368.50;;;34.98;31.70
10732;BME280;5417;42.686;23.244;2023-07-13T11:59:24;94352.03;;;34.94;31.31
10732;BME280;5417;42.686;23.244;2023-07-13T12:01:57;94357.94;;;35.01;30.48
10732;BME280;5417;42.686;23.244;2023-07-13T12:04:30;94366.84;;;35.07;30.41
10732;BME280;5417;42.686;23.244;2023-07-13T12:07:38;94366.00;;;35.11;31.11
10732;BME280;5417;42.686;23.244;2023-07-13T12:10:17;94363.84;;;35.08;29.41
10732;BME280;5417;42.686;23.244;2023-07-13T12:12:53;94369.28;;;35.08;30.16
10732;BME280;5417;42.686;23.244;2023-07-13T12:15:56;94361.69;;;35.10;30.33
10732;BME280;5417;42.686;23.244;2023-07-13T12:18:37;94348.72;;;35.07;30.45
10732;BME280;5417;42.686;23.244;2023-07-13T12:21:27;94342.22;;;35.08;30.25
10732;BME280;5417;42.686;23.244;2023-07-13T12:24:01;94333.38;;;34.93;29.88
10732;BME280;5417;42.686;23.244;2023-07-13T12:26:34;94339.28;;;35.00;29.35
10732;BME280;5417;42.686;23.244;2023-07-13T12:29:17;94334.72;;;34.95;30.00
10732;BME280;5417;42.686;23.244;2023-07-13T12:31:46;94333.88;;;35.00;28.39
10732;BME280;5417;42.686;23.244;2023-07-13T12:34:49;94326.59;;;34.95;30.47
10732;BME280;5417;42.686;23.244;2023-07-13T12:40:34;94315.19;;;35.03;30.33
10732;BME280;5417;42.686;23.244;2023-07-13T12:43:04;94320.06;;;35.01;29.61
10732;BME280;5417;42.686;23.244;2023-07-13T12:45:32;94316.28;;;35.02;30.04
10732;BME280;5417;42.686;23.244;2023-07-13T12:48:14;94313.81;;;35.06;30.26
10732;BME280;5417;42.686;23.244;2023-07-13T12:50:48;94317.09;;;35.03;29.35
10732;BME280;5417;42.686;23.244;2023-07-13T12:54:12;94318.47;;;34.95;29.40
10732;BME280;5417;42.686;23.244;2023-07-13T12:56:27;94307.16;;;34.88;29.75
10732;BME280;5417;42.686;23.244;2023-07-13T12:59:08;94302.56;;;34.89;30.33
10732;BME280;5417;42.686;23.244;2023-07-13T13:01:38;94301.75;;;34.83;29.62
10732;BME280;5417;42.686;23.244;2023-07-13T13:04:05;94299.56;;;34.80;29.46
10732;BME280;5417;42.686;23.244;2023-07-13T13:07:01;94295.25;;;34.79;29.67
10732;BME280;5417;42.686;23.244;2023-07-13T13:09:53;94292.00;;;34.77;29.57
10732;BME280;5417;42.686;23.244;2023-07-13T13:12:33;94286.63;;;34.72;29.39
10732;BME280;5417;42.686;23.244;2023-07-13T13:15:02;94288.28;;;34.68;28.66
10732;BME280;5417;42.686;23.244;2023-07-13T13:17:42;94268.59;;;34.57;29.45
10732;BME280;5417;42.686;23.244;2023-07-13T13:20:14;94258.06;;;34.51;29.11
10732;BME280;5417;42.686;23.244;2023-07-13T13:22:43;94283.44;;;34.60;29.55
10732;BME280;5417;42.686;23.244;2023-07-13T13:25:34;94278.84;;;34.60;30.88
10732;BME280;5417;42.686;23.244;2023-07-13T13:28:17;94282.09;;;34.57;30.44
10732;BME280;5417;42.686;23.244;2023-07-13T13:30:54;94262.94;;;34.48;30.41
10732;BME280;5417;42.686;23.244;2023-07-13T13:33:50;94276.41;;;34.59;29.25
10732;BME280;5417;42.686;23.244;2023-07-13T13:36:33;94275.06;;;34.61;29.56
10732;BME280;5417;42.686;23.244;2023-07-13T13:39:05;94268.56;;;34.62;29.36
10732;BME280;5417;42.686;23.244;2023-07-13T13:42:03;94275.28;;;34.70;30.31
10732;BME280;5417;42.686;23.244;2023-07-13T13:45:11;94277.22;;;34.59;28.79
10732;BME280;5417;42.686;23.244;2023-07-13T13:47:46;94266.69;;;34.58;29.45
10732;BME280;5417;42.686;23.244;2023-07-13T13:50:23;94263.75;;;34.49;29.86
10732;BME280;5417;42.686;23.244;2023-07-13T13:53:02;94268.31;;;34.59;29.98
10732;BME280;5417;42.686;23.244;2023-07-13T13:55:32;94266.44;;;34.54;29.70
10732;BME280;5417;42.686;23.244;2023-07-13T14:00:37;94254.84;;;34.48;29.13
10732;BME280;5417;42.686;23.244;2023-07-13T14:03:08;94261.59;;;34.51;30.24
10732;BME280;5417;42.686;23.244;2023-07-13T14:06:21;94260.50;;;34.52;30.07
10732;BME280;5417;42.686;23.244;2023-07-13T14:08:48;94252.94;;;34.49;30.93
10732;BME280;5417;42.686;23.244;2023-07-13T14:11:19;94265.66;;;34.48;30.66
10732;BME280;5417;42.686;23.244;2023-07-13T14:13:49;94261.63;;;34.41;31.27
10732;BME280;5417;42.686;23.244;2023-07-13T14:16:34;94254.59;;;34.40;30.55
10732;BME280;5417;42.686;23.244;2023-07-13T14:19:03;94255.66;;;34.49;30.16
10732;BME280;5417;42.686;23.244;2023-07-13T14:21:30;94252.94;;;34.49;30.69
10732;BME280;5417;42.686;23.244;2023-07-13T14:27:35;94248.38;;;34.44;31.59
10732;BME280;5417;42.686;23.244;2023-07-13T14:30:02;94242.94;;;34.49;31.40
10732;BME280;5417;42.686;23.244;2023-07-13T14:33:19;94250.78;;;34.51;32.03
10732;BME280;5417;42.686;23.244;2023-07-13T14:35:42;94245.38;;;34.51;32.79
10732;BME280;5417;42.686;23.244;2023-07-13T14:38:11;94249.16;;;34.50;32.38
10732;BME280;5417;42.686;23.244;2023-07-13T14:40:46;94238.06;;;34.52;31.53
10732;BME280;5417;42.686;23.244;2023-07-13T14:43:22;94237.84;;;34.43;32.43
10732;BME280;5417;42.686;23.244;2023-07-13T14:47:03;94240.84;;;34.36;31.67
10732;BME280;5417;42.686;23.244;2023-07-13T14:49:32;94239.72;;;34.32;32.99
10732;BME280;5417;42.686;23.244;2023-07-13T14:52:05;94234.59;;;34.31;32.42
10732;BME280;5417;42.686;23.244;2023-07-13T14:54:36;94217.31;;;34.27;33.22
10732;BME280;5417;42.686;23.244;2023-07-13T14:57:34;94231.38;;;34.24;32.62
10732;BME280;5417;42.686;23.244;2023-07-13T15:00:04;94227.88;;;34.18;33.44
10732;BME280;5417;42.686;23.244;2023-07-13T15:02:33;94232.75;;;34.16;33.96
10732;BME280;5417;42.686;23.244;2023-07-13T15:05:13;94237.59;;;34.19;33.82
10732;BME280;5417;42.686;23.244;2023-07-13T15:08:02;94227.38;;;34.11;34.63
10732;BME280;5417;42.686;23.244;2023-07-13T15:10:57;94231.41;;;34.13;34.03
10732;BME280;5417;42.686;23.244;2023-07-13T15:13:25;94237.63;;;34.14;34.51
10732;BME280;5417;42.686;23.244;2023-07-13T15:16:16;94222.53;;;34.03;33.09
10732;BME280;5417;42.686;23.244;2023-07-13T15:18:56;94226.63;;;33.90;33.63
10732;BME280;5417;42.686;23.244;2023-07-13T15:21:30;94227.94;;;33.98;34.25
10732;BME280;5417;42.686;23.244;2023-07-13T15:27:27;94210.69;;;33.89;34.78
10732;BME280;5417;42.686;23.244;2023-07-13T15:30:29;94203.91;;;33.81;34.84
10732;BME280;5417;42.686;23.244;2023-07-13T15:32:58;94223.66;;;33.92;34.70
10732;BME280;5417;42.686;23.244;2023-07-13T15:35:33;94215.00;;;33.90;34.72
10732;BME280;5417;42.686;23.244;2023-07-13T15:38:13;94227.13;;;33.97;34.17
10732;BME280;5417;42.686;23.244;2023-07-13T15:40:44;94219.06;;;33.92;34.66
10732;BME280;5417;42.686;23.244;2023-07-13T15:43:18;94225.25;;;33.98;34.21
10732;BME280;5417;42.686;23.244;2023-07-13T15:45:47;94227.69;;;33.94;34.21
10732;BME280;5417;42.686;23.244;2023-07-13T15:48:20;94230.38;;;33.94;35.07
10732;BME280;5417;42.686;23.244;2023-07-13T15:50:53;94226.63;;;33.85;34.68
10732;BME280;5417;42.686;23.244;2023-07-13T15:53:46;94218.75;;;33.78;34.83
10732;BME280;5417;42.686;23.244;2023-07-13T15:59:48;94229.56;;;33.78;35.40
10732;BME280;5417;42.686;23.244;2023-07-13T16:05:56;94217.69;;;33.69;35.48
10732;BME280;5417;42.686;23.244;2023-07-13T16:08:49;94219.34;;;33.55;37.05
10732;BME280;5417;42.686;23.244;2023-07-13T16:11:36;94221.50;;;33.63;36.61
10732;BME280;5417;42.686;23.244;2023-07-13T16:24:50;94210.19;;;33.46;35.16
10732;BME280;5417;42.686;23.244;2023-07-13T16:27:31;94215.59;;;33.46;34.87
10732;BME280;5417;42.686;23.244;2023-07-13T16:33:27;94211.81;;;33.42;35.12
10732;BME280;5417;42.686;23.244;2023-07-13T16:40:00;94218.56;;;33.39;35.38
10732;BME280;5417;42.686;23.244;2023-07-13T16:42:57;94205.56;;;33.21;35.13
10732;BME280;5417;42.686;23.244;2023-07-13T17:01:18;94222.56;;;33.11;35.24
10732;BME280;5417;42.686;23.244;2023-07-13T17:03:48;94235.22;;;33.11;35.09
10732;BME280;5417;42.686;23.244;2023-07-13T17:10:45;94229.03;;;33.05;34.96
10732;BME280;5417;42.686;23.244;2023-07-13T17:13:31;94226.59;;;32.99;35.13
10732;BME280;5417;42.686;23.244;2023-07-13T17:16:28;94221.72;;;32.96;35.16
10732;BME280;5417;42.686;23.244;2023-07-13T17:19:04;94221.72;;;32.96;35.28
10732;BME280;5417;42.686;23.244;2023-07-13T17:21:56;94227.38;;;32.84;35.51
10732;BME280;5417;42.686;23.244;2023-07-13T17:24:33;94233.31;;;32.86;35.95
10732;BME280;5417;42.686;23.244;2023-07-13T17:27:08;94205.72;;;32.69;36.35
10732;BME280;5417;42.686;23.244;2023-07-13T17:29:38;94227.09;;;32.80;36.52
10732;BME280;5417;42.686;23.244;2023-07-13T17:36:22;94221.63;;;32.70;38.39
10732;BME280;5417;42.686;23.244;2023-07-13T17:38:49;94225.13;;;32.60;38.01
10732;BME280;5417;42.686;23.244;2023-07-13T17:42:36;94233.97;;;32.41;38.65
10732;BME280;5417;42.686;23.244;2023-07-13T18:08:40;94235.00;;;31.50;38.60
10732;BME280;5417;42.686;23.244;2023-07-13T18:12:24;94255.88;;;31.33;40.89
10732;BME280;5417;42.686;23.244;2023-07-13T18:40:52;94293.72;;;30.56;44.41
10732;BME280;5417;42.686;23.244;2023-07-13T19:05:26;94313.84;;;30.14;45.57
10732;BME280;5417;42.686;23.244;2023-07-13T19:41:16;94335.59;;;30.13;40.70
10732;BME280;5417;42.686;23.244;2023-07-13T19:43:47;94334.78;;;30.12;41.92
10732;BME280;5417;42.686;23.244;2023-07-13T19:50:19;94340.31;;;30.06;42.17
10732;BME280;5417;42.686;23.244;2023-07-13T20:00:19;94341.88;;;29.85;41.49
10732;BME280;5417;42.686;23.244;2023-07-13T20:06:27;94345.28;;;29.80;43.46
10732;BME280;5417;42.686;23.244;2023-07-13T20:35:25;94311.25;;;29.19;45.08
10732;BME280;5417;42.686;23.244;2023-07-13T20:44:47;94319.78;;;29.16;44.82
10732;BME280;5417;42.686;23.244;2023-07-13T21:03:10;94320.38;;;28.78;45.78
10732;BME280;5417;42.686;23.244;2023-07-13T21:06:41;94331.41;;;28.81;45.54
10732;BME280;5417;42.686;23.244;2023-07-13T21:09:56;94327.97;;;28.69;45.41
10732;BME280;5417;42.686;23.244;2023-07-13T21:13:04;94328.47;;;28.54;45.16
10732;BME280;5417;42.686;23.244;2023-07-13T21:15:32;94345.91;;;28.57;44.93
10732;BME280;5417;42.686;23.244;2023-07-13T21:18:27;94341.28;;;28.64;46.55
10732;BME280;5417;42.686;23.244;2023-07-13T21:21:48;94329.38;;;28.60;46.99
10732;BME280;5417;42.686;23.244;2023-07-13T21:25:03;94329.03;;;28.56;45.69
10732;BME280;5417;42.686;23.244;2023-07-13T21:37:18;94345.25;;;28.50;47.53
10732;BME280;5417;42.686;23.244;2023-07-13T21:58:57;94339.22;;;28.08;50.10
10732;BME280;5417;42.686;23.244;2023-07-13T22:01:29;94318.53;;;27.91;50.21
10732;BME280;5417;42.686;23.244;2023-07-13T22:07:25;94326.06;;;27.94;50.17
10732;BME280;5417;42.686;23.244;2023-07-13T22:10:16;94329.81;;;27.93;49.29
10732;BME280;5417;42.686;23.244;2023-07-13T22:36:00;94290.03;;;27.74;50.03
10732;BME280;5417;42.686;23.244;2023-07-13T22:38:43;94287.38;;;27.74;50.54
10732;BME280;5417;42.686;23.244;2023-07-13T22:44:40;94287.81;;;27.82;50.76
10732;BME280;5417;42.686;23.244;2023-07-13T22:47:20;94289.09;;;27.68;51.24
10732;BME280;5417;42.686;23.244;2023-07-13T22:49:47;94302.81;;;27.60;51.78
10732;BME280;5417;42.686;23.244;2023-07-13T22:52:30;94295.09;;;27.52;51.98
10732;BME280;5417;42.686;23.244;2023-07-13T22:55:01;94300.31;;;27.47;51.93
10732;BME280;5417;42.686;23.244;2023-07-13T23:01:01;94303.34;;;27.39;53.33
10732;BME280;5417;42.686;23.244;2023-07-13T23:10:19;94286.34;;;27.10;55.13
10732;BME280;5417;42.686;23.244;2023-07-13T23:13:03;94270.44;;;26.96;55.23
10732;BME280;5417;42.686;23.244;2023-07-13T23:15:54;94270.91;;;26.93;55.58
10732;BME280;5417;42.686;23.244;2023-07-13T23:18:48;94263.22;;;26.85;55.92
10732;BME280;5417;42.686;23.244;2023-07-13T23:21:46;94251.38;;;26.81;56.37
10732;BME280;5417;42.686;23.244;2023-07-13T23:38:02;94240.75;;;26.63;56.34
10732;BME280;5417;42.686;23.244;2023-07-13T23:40:29;94237.63;;;26.66;56.59
10732;BME280;5417;42.686;23.244;2023-07-13T23:46:24;94236.81;;;26.65;56.94
10732;BME280;5417;42.686;23.244;2023-07-13T23:52:36;94240.63;;;26.58;56.67
